createdAt,value
2018-02-04T00:00:12.015Z,0.00
2018-02-04T00:01:11.930Z,0.00
2018-02-04T00:03:04.713Z,0.00
2018-02-04T00:04:04.628Z,0.00
2018-02-04T00:05:57.392Z,0.00
2018-02-04T00:06:57.324Z,0.00
2018-02-04T00:08:50.108Z,0.00
2018-02-04T00:09:50.020Z,0.00
2018-02-04T00:11:42.785Z,0.00
2018-02-04T00:12:42.720Z,0.00
2018-02-04T00:14:35.501Z,0.00
2018-02-04T00:15:35.416Z,0.00
2018-02-04T00:17:28.176Z,0.00
2018-02-04T00:18:28.110Z,0.00
2018-02-04T00:20:20.894Z,0.00
2018-02-04T00:21:20.810Z,0.00
2018-02-04T00:23:13.570Z,0.00
2018-02-04T00:24:13.506Z,0.00
2018-02-04T00:26:06.296Z,0.00
2018-02-04T00:27:06.208Z,0.00
2018-02-04T00:28:58.970Z,0.00
2018-02-04T00:29:58.907Z,0.00
2018-02-04T00:31:51.688Z,0.00
2018-02-04T00:32:51.602Z,0.00
2018-02-04T00:34:44.388Z,0.00
2018-02-04T00:35:44.300Z,0.00
2018-02-04T00:37:37.085Z,0.00
2018-02-04T00:38:36.998Z,0.00
2018-02-04T00:40:29.762Z,0.00
2018-02-04T00:41:29.700Z,0.00
2018-02-04T00:43:22.482Z,0.00
2018-02-04T00:44:22.396Z,0.00
2018-02-04T00:46:15.158Z,0.00
2018-02-04T00:47:15.101Z,0.00
2018-02-04T00:49:07.877Z,0.00
2018-02-04T00:50:07.792Z,0.00
2018-02-04T00:52:00.576Z,0.00
2018-02-04T00:53:00.520Z,0.00
2018-02-04T00:54:53.271Z,0.00
2018-02-04T00:55:53.186Z,0.00
2018-02-04T00:57:45.949Z,0.00
2018-02-04T00:58:45.886Z,0.00
2018-02-04T01:00:38.668Z,0.00
2018-02-04T01:01:38.580Z,0.00
2018-02-04T01:03:31.342Z,0.00
2018-02-04T01:04:31.278Z,0.00
2018-02-04T01:06:24.059Z,0.00
2018-02-04T01:07:23.977Z,0.00
2018-02-04T01:09:16.759Z,0.00
2018-02-04T01:10:16.673Z,0.00
2018-02-04T01:12:09.455Z,0.00
2018-02-04T01:13:09.373Z,0.00
2018-02-04T01:15:02.128Z,0.00
2018-02-04T01:16:02.064Z,0.00
2018-02-04T01:17:54.847Z,0.00
2018-02-04T01:18:54.762Z,0.00
2018-02-04T01:20:47.537Z,0.00
2018-02-04T01:21:47.475Z,0.00
2018-02-04T01:23:40.254Z,0.00
2018-02-04T01:24:40.168Z,0.00
2018-02-04T01:26:32.950Z,0.00
2018-02-04T01:27:32.866Z,0.00
2018-02-04T01:29:25.649Z,0.00
2018-02-04T01:30:25.558Z,0.00
2018-02-04T01:32:18.320Z,0.00
2018-02-04T01:33:18.255Z,0.00
2018-02-04T01:35:11.037Z,0.00
2018-02-04T01:36:10.954Z,0.00
2018-02-04T01:38:03.713Z,0.00
2018-02-04T01:39:03.647Z,0.00
2018-02-04T01:40:56.429Z,0.00
2018-02-04T01:41:56.344Z,0.00
2018-02-04T01:43:49.127Z,0.00
2018-02-04T01:44:49.041Z,0.00
2018-02-04T01:46:41.820Z,0.00
2018-02-04T01:47:41.736Z,0.00
2018-02-04T01:49:34.518Z,0.00
2018-02-04T01:50:34.433Z,0.00
2018-02-04T01:52:27.217Z,0.00
2018-02-04T01:53:27.133Z,0.00
2018-02-04T01:55:19.889Z,0.00
2018-02-04T01:56:19.827Z,0.00
2018-02-04T01:58:12.611Z,0.00
2018-02-04T01:59:12.524Z,0.00
2018-02-04T02:01:05.305Z,0.00
2018-02-04T02:02:05.219Z,0.00
2018-02-04T02:03:58.000Z,0.00
2018-02-04T02:04:57.914Z,0.00
2018-02-04T02:06:50.695Z,0.00
2018-02-04T02:07:50.609Z,0.00
2018-02-04T02:09:43.392Z,0.00
2018-02-04T02:10:43.307Z,0.00
2018-02-04T02:12:36.067Z,0.00
2018-02-04T02:13:36.004Z,0.00
2018-02-04T02:15:28.844Z,0.00
2018-02-04T02:16:28.712Z,0.00
2018-02-04T02:18:21.495Z,0.00
2018-02-04T02:19:21.408Z,0.00
2018-02-04T02:21:14.193Z,0.00
2018-02-04T02:22:14.107Z,0.00
2018-02-04T02:24:06.889Z,0.00
2018-02-04T02:25:06.804Z,0.00
2018-02-04T02:26:59.589Z,0.00
2018-02-04T02:27:59.501Z,0.00
2018-02-04T02:29:52.261Z,0.00
2018-02-04T02:30:52.197Z,0.00
2018-02-04T02:32:44.980Z,0.00
2018-02-04T02:33:44.893Z,0.00
2018-02-04T02:35:37.676Z,0.00
2018-02-04T02:36:37.591Z,0.00
2018-02-04T02:38:30.369Z,0.00
2018-02-04T02:39:30.286Z,0.00
2018-02-04T02:41:23.067Z,0.00
2018-02-04T02:42:22.983Z,0.00
2018-02-04T02:44:15.766Z,0.00
2018-02-04T02:45:15.678Z,0.00
2018-02-04T02:47:08.441Z,0.00
2018-02-04T02:48:08.377Z,0.00
2018-02-04T02:50:01.160Z,0.00
2018-02-04T02:51:01.076Z,0.00
2018-02-04T02:52:53.855Z,0.00
2018-02-04T02:53:53.773Z,0.00
2018-02-04T02:55:46.552Z,0.00
2018-02-04T02:56:46.465Z,0.00
2018-02-04T02:58:39.248Z,0.00
2018-02-04T02:59:39.162Z,0.00
2018-02-04T03:01:31.941Z,0.00
2018-02-04T03:02:31.857Z,0.00
2018-02-04T03:04:24.618Z,0.00
2018-02-04T03:05:24.553Z,0.00
2018-02-04T03:07:17.334Z,0.00
2018-02-04T03:08:17.251Z,0.00
2018-02-04T03:10:10.097Z,0.00
2018-02-04T03:11:09.955Z,0.00
2018-02-04T03:13:02.739Z,0.00
2018-02-04T03:14:02.652Z,0.00
2018-02-04T03:15:55.434Z,0.00
2018-02-04T03:16:55.348Z,0.00
2018-02-04T03:18:48.133Z,0.00
2018-02-04T03:19:48.049Z,0.00
2018-02-04T03:21:40.806Z,0.00
2018-02-04T03:22:40.742Z,0.00
2018-02-04T03:24:33.523Z,0.00
2018-02-04T03:25:33.439Z,0.00
2018-02-04T03:27:26.223Z,0.00
2018-02-04T03:28:26.138Z,0.00
2018-02-04T03:30:18.926Z,0.00
2018-02-04T03:31:18.830Z,0.00
2018-02-04T03:33:11.614Z,0.00
2018-02-04T03:34:11.528Z,0.00
2018-02-04T03:36:04.315Z,0.00
2018-02-04T03:37:04.223Z,0.00
2018-02-04T03:38:56.985Z,0.00
2018-02-04T03:39:56.945Z,0.00
2018-02-04T03:41:49.702Z,0.00
2018-02-04T03:42:49.618Z,0.00
2018-02-04T03:44:42.402Z,0.00
2018-02-04T03:45:42.314Z,0.00
2018-02-04T03:47:35.106Z,0.00
2018-02-04T03:48:35.018Z,0.00
2018-02-04T03:50:27.800Z,0.00
2018-02-04T03:51:27.716Z,0.00
2018-02-04T03:53:20.495Z,0.00
2018-02-04T03:54:20.409Z,0.00
2018-02-04T03:56:13.169Z,0.00
2018-02-04T03:57:13.105Z,0.00
2018-02-04T03:59:05.889Z,0.00
2018-02-04T04:00:05.802Z,0.00
2018-02-04T04:01:58.584Z,0.00
2018-02-04T04:02:58.499Z,0.00
2018-02-04T04:04:51.279Z,0.00
2018-02-04T04:05:51.195Z,0.00
2018-02-04T04:07:43.978Z,0.00
2018-02-04T04:08:43.890Z,0.00
2018-02-04T04:10:36.673Z,0.00
2018-02-04T04:11:36.586Z,0.00
2018-02-04T04:13:29.347Z,0.00
2018-02-04T04:14:29.284Z,0.00
2018-02-04T04:16:22.064Z,0.00
2018-02-04T04:17:21.981Z,0.00
2018-02-04T04:19:14.740Z,0.00
2018-02-04T04:20:14.675Z,0.00
2018-02-04T04:22:07.457Z,0.00
2018-02-04T04:23:07.372Z,0.00
2018-02-04T04:25:00.153Z,0.00
2018-02-04T04:26:00.070Z,0.00
2018-02-04T04:27:52.850Z,0.00
2018-02-04T04:28:52.766Z,0.00
2018-02-04T04:30:45.527Z,0.00
2018-02-04T04:31:45.463Z,0.00
2018-02-04T04:33:38.248Z,0.00
2018-02-04T04:34:38.165Z,0.00
2018-02-04T04:36:30.945Z,0.00
2018-02-04T04:37:30.862Z,0.00
2018-02-04T04:39:23.644Z,0.00
2018-02-04T04:40:23.558Z,0.00
2018-02-04T04:42:16.338Z,0.00
2018-02-04T04:43:16.253Z,0.00
2018-02-04T04:45:09.037Z,0.00
2018-02-04T04:46:08.952Z,0.00
2018-02-04T04:48:01.711Z,0.00
2018-02-04T04:49:01.647Z,0.00
2018-02-04T04:50:54.427Z,0.00
2018-02-04T04:51:54.342Z,0.00
2018-02-04T04:53:47.124Z,0.00
2018-02-04T04:54:47.037Z,0.00
2018-02-04T04:56:39.820Z,0.00
2018-02-04T04:57:39.734Z,0.00
2018-02-04T04:59:32.515Z,0.00
2018-02-04T05:00:32.430Z,0.00
2018-02-04T05:02:25.213Z,0.00
2018-02-04T05:03:25.128Z,0.00
2018-02-04T05:05:17.891Z,0.00
2018-02-04T05:06:17.824Z,0.00
2018-02-04T05:08:10.610Z,0.00
2018-02-04T05:09:10.526Z,0.00
2018-02-04T05:11:03.312Z,0.00
2018-02-04T05:12:03.228Z,0.00
2018-02-04T05:13:56.005Z,0.00
2018-02-04T05:14:55.919Z,0.00
2018-02-04T05:16:48.700Z,0.00
2018-02-04T05:17:48.614Z,0.00
2018-02-04T05:19:41.396Z,0.00
2018-02-04T05:20:41.312Z,0.00
2018-02-04T05:22:34.073Z,0.00
2018-02-04T05:23:34.007Z,0.00
2018-02-04T05:25:26.795Z,0.00
2018-02-04T05:26:26.708Z,0.00
2018-02-04T05:28:19.489Z,0.00
2018-02-04T05:29:19.402Z,0.00
2018-02-04T05:31:12.183Z,0.00
2018-02-04T05:32:12.099Z,0.00
2018-02-04T05:34:04.884Z,0.00
2018-02-04T05:35:04.795Z,0.00
2018-02-04T05:36:57.579Z,0.00
2018-02-04T05:37:57.492Z,0.00
2018-02-04T05:39:50.256Z,0.00
2018-02-04T05:40:50.191Z,0.00
2018-02-04T05:42:42.972Z,0.00
2018-02-04T05:43:42.891Z,0.00
2018-02-04T05:45:35.670Z,0.00
2018-02-04T05:46:35.587Z,0.00
2018-02-04T05:48:28.366Z,0.00
2018-02-04T05:49:28.280Z,0.00
2018-02-04T05:51:21.061Z,0.00
2018-02-04T05:52:20.976Z,0.00
2018-02-04T05:54:13.758Z,0.00
2018-02-04T05:55:13.673Z,0.00
2018-02-04T05:57:06.454Z,0.00
2018-02-04T05:58:06.368Z,0.00
2018-02-04T05:59:59.149Z,0.00
2018-02-04T06:00:59.063Z,0.00
2018-02-04T06:02:51.824Z,0.00
2018-02-04T06:03:51.760Z,0.00
2018-02-04T06:05:44.544Z,0.00
2018-02-04T06:06:44.459Z,0.00
2018-02-04T06:08:37.241Z,0.00
2018-02-04T06:09:37.155Z,0.00
2018-02-04T06:11:29.939Z,0.00
2018-02-04T06:12:29.852Z,0.00
2018-02-04T06:14:22.635Z,4.00
2018-02-04T06:15:22.551Z,4.00
2018-02-04T06:17:15.333Z,4.00
2018-02-04T06:18:15.248Z,8.00
2018-02-04T06:20:08.011Z,8.00
2018-02-04T06:21:07.942Z,8.00
2018-02-04T06:23:00.724Z,12.00
2018-02-04T06:24:00.639Z,12.00
2018-02-04T06:25:53.429Z,16.00
2018-02-04T06:26:53.334Z,20.00
2018-02-04T06:28:46.119Z,24.00
2018-02-04T06:29:46.033Z,28.00
2018-02-04T06:31:38.815Z,36.00
2018-02-04T06:32:38.728Z,40.00
2018-02-04T06:34:31.512Z,52.00
2018-02-04T06:35:31.427Z,56.00
2018-02-04T06:37:24.187Z,68.00
2018-02-04T06:38:24.122Z,72.00
2018-02-04T06:40:16.904Z,88.00
2018-02-04T06:41:16.817Z,88.00
2018-02-04T06:43:09.598Z,104.00
2018-02-04T06:44:09.511Z,116.00
2018-02-04T06:46:02.297Z,132.00
2018-02-04T06:47:02.210Z,144.00
2018-02-04T06:48:54.991Z,152.00
2018-02-04T06:49:54.905Z,156.00
2018-02-04T06:51:48.287Z,160.00
2018-02-04T06:52:48.003Z,160.00
2018-02-04T06:54:40.558Z,168.00
2018-02-04T06:55:40.493Z,172.00
2018-02-04T06:57:33.273Z,172.00
2018-02-04T06:58:33.187Z,164.00
2018-02-04T07:00:25.949Z,152.00
2018-02-04T07:01:25.885Z,148.00
2018-02-04T07:03:18.665Z,160.00
2018-02-04T07:04:18.579Z,180.00
2018-02-04T07:06:11.361Z,248.00
2018-02-04T07:07:11.276Z,292.00
2018-02-04T07:09:04.062Z,356.00
2018-02-04T07:10:03.976Z,380.00
2018-02-04T07:11:56.735Z,436.00
2018-02-04T07:12:56.670Z,460.00
2018-02-04T07:14:49.454Z,512.00
2018-02-04T07:15:49.368Z,528.00
2018-02-04T07:17:42.131Z,580.00
2018-02-04T07:18:42.066Z,620.00
2018-02-04T07:20:34.849Z,688.00
2018-02-04T07:21:34.796Z,696.00
2018-02-04T07:23:27.584Z,712.00
2018-02-04T07:24:27.454Z,728.00
2018-02-04T07:26:20.239Z,748.00
2018-02-04T07:27:20.154Z,772.00
2018-02-04T07:29:12.916Z,852.00
2018-02-04T07:30:12.850Z,908.00
2018-02-04T07:32:05.632Z,1068.00
2018-02-04T07:33:05.547Z,1168.00
2018-02-04T07:34:58.305Z,1336.00
2018-02-04T07:35:58.240Z,1416.00
2018-02-04T07:37:51.024Z,1588.00
2018-02-04T07:38:50.938Z,1672.00
2018-02-04T07:40:43.743Z,1804.00
2018-02-04T07:41:43.634Z,1876.00
2018-02-04T07:43:36.417Z,1992.00
2018-02-04T07:44:36.331Z,2068.00
2018-02-04T07:46:29.112Z,2192.00
2018-02-04T07:47:29.028Z,2252.00
2018-02-04T07:49:21.792Z,2272.00
2018-02-04T07:50:21.726Z,2244.00
2018-02-04T07:52:14.508Z,2172.00
2018-02-04T07:53:14.419Z,2240.00
2018-02-04T07:55:07.208Z,2248.00
2018-02-04T07:56:07.116Z,2252.00
2018-02-04T07:57:59.901Z,2404.00
2018-02-04T07:58:59.816Z,2576.00
2018-02-04T08:00:52.595Z,2960.00
2018-02-04T08:01:52.513Z,2956.00
2018-02-04T08:03:45.291Z,3104.00
2018-02-04T08:04:45.206Z,3252.00
2018-02-04T08:06:37.966Z,3688.00
2018-02-04T08:07:37.903Z,3616.00
2018-02-04T08:09:30.686Z,3600.00
2018-02-04T08:10:30.601Z,3636.00
2018-02-04T08:12:23.381Z,3228.00
2018-02-04T08:13:23.297Z,3044.00
2018-02-04T08:15:16.081Z,3304.00
2018-02-04T08:16:15.995Z,3332.00
2018-02-04T08:18:08.776Z,3432.00
2018-02-04T08:19:08.694Z,3360.00
2018-02-04T08:21:01.477Z,3268.00
2018-02-04T08:22:01.390Z,3268.00
2018-02-04T08:23:54.152Z,3388.00
2018-02-04T08:24:54.090Z,3544.00
2018-02-04T08:26:46.868Z,3808.00
2018-02-04T08:27:46.783Z,4076.00
2018-02-04T08:28:46.722Z,4360.00
2018-02-04T08:29:46.712Z,4704.00
2018-02-04T08:30:46.602Z,5068.00
2018-02-04T08:31:46.541Z,5160.00
2018-02-04T08:32:46.480Z,5280.00
2018-02-04T08:33:46.421Z,5168.00
2018-02-04T08:34:46.360Z,5316.00
2018-02-04T08:35:46.299Z,5104.00
2018-02-04T08:36:46.238Z,5020.00
2018-02-04T08:37:46.179Z,4888.00
2018-02-04T08:38:46.118Z,5080.00
2018-02-04T08:39:46.056Z,5244.00
2018-02-04T08:40:45.996Z,5296.00
2018-02-04T08:41:45.938Z,5124.00
2018-02-04T08:42:45.875Z,4908.00
2018-02-04T08:43:45.815Z,4980.00
2018-02-04T08:44:45.755Z,4976.00
2018-02-04T08:45:45.695Z,5048.00
2018-02-04T08:46:45.633Z,5460.00
2018-02-04T08:47:45.576Z,5820.00
2018-02-04T08:48:45.516Z,6076.00
2018-02-04T08:49:45.453Z,6248.00
2018-02-04T08:50:45.395Z,6512.00
2018-02-04T08:51:45.338Z,6668.00
2018-02-04T08:52:45.277Z,6432.00
2018-02-04T08:53:45.217Z,6236.00
2018-02-04T08:54:45.152Z,6236.00
2018-02-04T08:55:45.092Z,5656.00
2018-02-04T08:56:45.033Z,5040.00
2018-02-04T08:57:44.972Z,4328.00
2018-02-04T08:58:44.912Z,3836.00
2018-02-04T08:59:44.851Z,3632.00
2018-02-04T09:00:44.792Z,3364.00
2018-02-04T09:01:44.731Z,2976.00
2018-02-04T09:02:44.670Z,2484.00
2018-02-04T09:03:44.610Z,1984.00
2018-02-04T09:04:44.551Z,1640.00
2018-02-04T09:05:44.492Z,1348.00
2018-02-04T09:06:44.432Z,1164.00
2018-02-04T09:07:44.372Z,1044.00
2018-02-04T09:08:44.312Z,988.00
2018-02-04T09:09:44.251Z,836.00
2018-02-04T09:10:44.191Z,700.00
2018-02-04T09:11:44.130Z,592.00
2018-02-04T09:12:44.070Z,556.00
2018-02-04T09:13:44.011Z,584.00
2018-02-04T09:14:43.949Z,660.00
2018-02-04T09:15:43.890Z,752.00
2018-02-04T09:16:43.832Z,804.00
2018-02-04T09:17:43.771Z,876.00
2018-02-04T09:18:43.708Z,940.00
2018-02-04T09:19:43.649Z,1016.00
2018-02-04T09:20:43.591Z,1072.00
2018-02-04T09:21:43.528Z,1116.00
2018-02-04T09:22:43.468Z,1332.00
2018-02-04T09:23:43.407Z,1640.00
2018-02-04T09:24:43.348Z,1892.00
2018-02-04T09:25:43.287Z,2128.00
2018-02-04T09:26:43.227Z,2380.00
2018-02-04T09:27:43.166Z,2616.00
2018-02-04T09:28:43.108Z,3092.00
2018-02-04T09:29:43.045Z,3712.00
2018-02-04T09:30:42.984Z,4200.00
2018-02-04T09:31:42.925Z,4452.00
2018-02-04T09:32:42.864Z,4596.00
2018-02-04T09:33:42.804Z,4640.00
2018-02-04T09:34:42.744Z,4508.00
2018-02-04T09:35:42.685Z,4392.00
2018-02-04T09:36:42.622Z,4296.00
2018-02-04T09:37:42.562Z,4144.00
2018-02-04T09:38:42.500Z,3944.00
2018-02-04T09:39:42.441Z,3584.00
2018-02-04T09:40:42.384Z,3152.00
2018-02-04T09:41:42.322Z,2912.00
2018-02-04T09:42:42.262Z,2720.00
2018-02-04T09:43:42.200Z,2700.00
2018-02-04T09:44:42.141Z,2828.00
2018-02-04T09:45:42.081Z,2832.00
2018-02-04T09:46:42.021Z,2864.00
2018-02-04T09:47:41.961Z,2968.00
2018-02-04T09:48:41.900Z,3160.00
2018-02-04T09:49:41.841Z,3288.00
2018-02-04T09:50:41.783Z,3384.00
2018-02-04T09:51:41.718Z,3564.00
2018-02-04T09:52:41.657Z,3800.00
2018-02-04T09:53:41.599Z,3984.00
2018-02-04T09:54:41.538Z,4084.00
2018-02-04T09:55:41.478Z,4152.00
2018-02-04T09:56:41.424Z,4188.00
2018-02-04T09:57:41.357Z,4192.00
2018-02-04T09:58:41.321Z,4140.00
2018-02-04T09:59:41.238Z,4016.00
2018-02-04T10:00:41.177Z,3852.00
2018-02-04T10:01:41.118Z,3712.00
2018-02-04T10:02:41.057Z,3576.00
2018-02-04T10:03:40.995Z,3444.00
2018-02-04T10:04:40.937Z,3344.00
2018-02-04T10:05:40.876Z,3240.00
2018-02-04T10:06:40.817Z,3152.00
2018-02-04T10:07:40.755Z,3156.00
2018-02-04T10:08:40.695Z,3280.00
2018-02-04T10:09:40.636Z,3492.00
2018-02-04T10:10:40.575Z,3668.00
2018-02-04T10:11:40.516Z,3712.00
2018-02-04T10:12:40.455Z,3664.00
2018-02-04T10:13:40.394Z,3564.00
2018-02-04T10:14:40.334Z,3372.00
2018-02-04T10:15:40.274Z,3136.00
2018-02-04T10:16:40.217Z,2964.00
2018-02-04T10:17:40.157Z,2900.00
2018-02-04T10:18:40.093Z,2792.00
2018-02-04T10:19:40.038Z,2660.00
2018-02-04T10:20:39.975Z,2528.00
2018-02-04T10:21:39.915Z,2428.00
2018-02-04T10:22:39.853Z,2372.00
2018-02-04T10:23:39.793Z,2368.00
2018-02-04T10:24:39.733Z,2388.00
2018-02-04T10:25:39.674Z,2456.00
2018-02-04T10:26:39.615Z,2548.00
2018-02-04T10:27:39.553Z,2680.00
2018-02-04T10:28:39.495Z,2792.00
2018-02-04T10:29:39.434Z,2896.00
2018-02-04T10:30:39.426Z,3044.00
2018-02-04T10:31:39.314Z,3188.00
2018-02-04T10:32:39.254Z,3336.00
2018-02-04T10:33:39.194Z,3476.00
2018-02-04T10:34:39.133Z,3668.00
2018-02-04T10:35:39.074Z,3840.00
2018-02-04T10:36:39.014Z,3928.00
2018-02-04T10:37:38.955Z,3880.00
2018-02-04T10:38:38.892Z,3768.00
2018-02-04T10:39:38.833Z,3772.00
2018-02-04T10:40:38.773Z,3824.00
2018-02-04T10:41:38.713Z,3908.00
2018-02-04T10:42:38.652Z,4004.00
2018-02-04T10:43:38.594Z,4092.00
2018-02-04T10:44:38.532Z,4248.00
2018-02-04T10:45:38.473Z,4412.00
2018-02-04T10:46:38.412Z,4564.00
2018-02-04T10:47:38.354Z,4756.00
2018-02-04T10:48:38.293Z,5020.00
2018-02-04T10:49:38.237Z,5280.00
2018-02-04T10:50:38.173Z,5424.00
2018-02-04T10:51:38.112Z,5452.00
2018-02-04T10:52:38.054Z,5384.00
2018-02-04T10:53:37.993Z,5312.00
2018-02-04T10:54:37.933Z,5260.00
2018-02-04T10:55:37.892Z,5252.00
2018-02-04T10:56:37.812Z,5272.00
2018-02-04T10:57:37.754Z,5276.00
2018-02-04T10:58:37.694Z,5264.00
2018-02-04T10:59:37.633Z,5300.00
2018-02-04T11:00:37.575Z,5380.00
2018-02-04T11:01:37.513Z,5504.00
2018-02-04T11:02:37.454Z,5696.00
2018-02-04T11:03:37.393Z,5872.00
2018-02-04T11:04:37.336Z,6000.00
2018-02-04T11:05:37.273Z,6168.00
2018-02-04T11:06:37.215Z,6188.00
2018-02-04T11:07:37.154Z,5880.00
2018-02-04T11:08:37.095Z,5508.00
2018-02-04T11:09:37.035Z,5192.00
2018-02-04T11:10:36.976Z,4816.00
2018-02-04T11:11:36.933Z,4552.00
2018-02-04T11:12:36.856Z,4452.00
2018-02-04T11:13:36.798Z,4660.00
2018-02-04T11:14:36.737Z,4832.00
2018-02-04T11:15:36.678Z,4648.00
2018-02-04T11:16:36.620Z,4396.00
2018-02-04T11:17:36.562Z,4256.00
2018-02-04T11:18:36.499Z,4296.00
2018-02-04T11:19:36.443Z,4360.00
2018-02-04T11:20:36.380Z,4504.00
2018-02-04T11:21:36.321Z,4648.00
2018-02-04T11:22:36.260Z,4768.00
2018-02-04T11:23:36.199Z,4688.00
2018-02-04T11:24:36.141Z,4500.00
2018-02-04T11:25:36.084Z,4296.00
2018-02-04T11:26:36.022Z,4028.00
2018-02-04T11:27:35.962Z,3816.00
2018-02-04T11:28:35.903Z,3944.00
2018-02-04T11:29:35.844Z,4404.00
2018-02-04T11:30:35.783Z,4896.00
2018-02-04T11:31:35.723Z,5356.00
2018-02-04T11:32:35.665Z,5828.00
2018-02-04T11:33:35.604Z,6148.00
2018-02-04T11:34:35.545Z,6404.00
2018-02-04T11:35:35.485Z,6592.00
2018-02-04T11:36:35.426Z,6376.00
2018-02-04T11:37:35.367Z,6328.00
2018-02-04T11:38:35.307Z,6432.00
2018-02-04T11:39:35.246Z,6600.00
2018-02-04T11:40:35.188Z,6656.00
2018-02-04T11:41:35.129Z,6792.00
2018-02-04T11:42:35.067Z,6756.00
2018-02-04T11:43:35.009Z,6744.00
2018-02-04T11:44:34.949Z,7056.00
2018-02-04T11:45:34.891Z,6548.00
2018-02-04T11:46:34.860Z,6196.00
2018-02-04T11:47:34.773Z,6492.00
2018-02-04T11:48:34.712Z,6884.00
2018-02-04T11:49:34.652Z,7556.00
2018-02-04T11:50:34.593Z,7988.00
2018-02-04T11:51:34.533Z,7652.00
2018-02-04T11:52:34.475Z,7516.00
2018-02-04T11:53:34.417Z,7120.00
2018-02-04T11:54:34.355Z,7252.00
2018-02-04T11:55:34.298Z,7516.00
2018-02-04T11:56:34.238Z,7728.00
2018-02-04T11:57:34.180Z,7960.00
2018-02-04T11:58:34.119Z,8024.00
2018-02-04T11:59:34.061Z,7776.00
2018-02-04T12:00:34.002Z,7420.00
2018-02-04T12:01:33.942Z,6748.00
2018-02-04T12:02:33.883Z,6068.00
2018-02-04T12:03:33.823Z,5440.00
2018-02-04T12:04:33.765Z,4480.00
2018-02-04T12:05:33.704Z,3736.00
2018-02-04T12:06:33.646Z,3232.00
2018-02-04T12:07:33.586Z,2900.00
2018-02-04T12:08:33.529Z,2672.00
2018-02-04T12:09:33.468Z,2528.00
2018-02-04T12:10:33.409Z,2636.00
2018-02-04T12:11:33.352Z,2892.00
2018-02-04T12:12:33.290Z,3152.00
2018-02-04T12:13:33.231Z,3288.00
2018-02-04T12:14:33.174Z,3076.00
2018-02-04T12:15:33.115Z,2660.00
2018-02-04T12:16:33.080Z,2320.00
2018-02-04T12:17:32.996Z,2156.00
2018-02-04T12:18:32.935Z,2088.00
2018-02-04T12:19:32.876Z,1972.00
2018-02-04T12:20:32.821Z,1944.00
2018-02-04T12:21:32.759Z,1904.00
2018-02-04T12:22:32.697Z,1880.00
2018-02-04T12:23:32.642Z,1828.00
2018-02-04T12:24:32.580Z,1748.00
2018-02-04T12:25:32.519Z,1640.00
2018-02-04T12:26:32.464Z,1540.00
2018-02-04T12:27:32.402Z,1456.00
2018-02-04T12:28:32.342Z,1372.00
2018-02-04T12:29:32.284Z,1288.00
2018-02-04T12:30:32.223Z,1236.00
2018-02-04T12:31:32.168Z,1192.00
2018-02-04T12:32:32.108Z,1144.00
2018-02-04T12:33:32.044Z,1112.00
2018-02-04T12:34:31.986Z,1104.00
2018-02-04T12:35:31.925Z,1088.00
2018-02-04T12:36:31.867Z,1092.00
2018-02-04T12:37:31.807Z,1100.00
2018-02-04T12:38:31.746Z,1112.00
2018-02-04T12:39:31.686Z,1124.00
2018-02-04T12:40:31.633Z,1168.00
2018-02-04T12:41:31.568Z,1248.00
2018-02-04T12:42:31.507Z,1324.00
2018-02-04T12:43:31.448Z,1404.00
2018-02-04T12:44:31.388Z,1472.00
2018-02-04T12:45:31.329Z,1508.00
2018-02-04T12:46:31.268Z,1520.00
2018-02-04T12:47:31.210Z,1536.00
2018-02-04T12:48:31.148Z,1596.00
2018-02-04T12:49:31.089Z,1692.00
2018-02-04T12:50:31.029Z,1836.00
2018-02-04T12:51:30.970Z,1976.00
2018-02-04T12:52:30.909Z,2088.00
2018-02-04T12:53:30.849Z,2236.00
2018-02-04T12:54:30.789Z,2400.00
2018-02-04T12:55:30.731Z,2520.00
2018-02-04T12:56:30.670Z,2600.00
2018-02-04T12:57:30.610Z,2628.00
2018-02-04T12:58:30.550Z,2592.00
2018-02-04T12:59:30.490Z,2564.00
2018-02-04T13:00:30.430Z,2580.00
2018-02-04T13:01:30.372Z,2572.00
2018-02-04T13:02:30.346Z,2552.00
2018-02-04T13:03:30.250Z,2508.00
2018-02-04T13:04:30.191Z,2452.00
2018-02-04T13:05:30.131Z,2396.00
2018-02-04T13:06:30.071Z,2376.00
2018-02-04T13:07:30.010Z,2356.00
2018-02-04T13:08:29.956Z,2340.00
2018-02-04T13:09:29.891Z,2364.00
2018-02-04T13:10:29.830Z,2356.00
2018-02-04T13:11:29.771Z,2312.00
2018-02-04T13:12:29.711Z,2244.00
2018-02-04T13:13:29.652Z,2156.00
2018-02-04T13:14:29.591Z,2096.00
2018-02-04T13:15:29.533Z,2092.00
2018-02-04T13:16:29.471Z,2108.00
2018-02-04T13:17:29.411Z,2120.00
2018-02-04T13:18:29.351Z,2108.00
2018-02-04T13:19:29.292Z,2088.00
2018-02-04T13:20:29.231Z,2092.00
2018-02-04T13:21:29.173Z,2152.00
2018-02-04T13:22:29.110Z,2292.00
2018-02-04T13:23:29.052Z,2516.00
2018-02-04T13:24:28.993Z,2760.00
2018-02-04T13:25:28.933Z,3008.00
2018-02-04T13:26:28.873Z,3168.00
2018-02-04T13:27:28.812Z,3228.00
2018-02-04T13:28:28.752Z,3232.00
2018-02-04T13:29:28.692Z,3168.00
2018-02-04T13:30:28.631Z,3044.00
2018-02-04T13:31:28.573Z,2964.00
2018-02-04T13:32:28.512Z,2860.00
2018-02-04T13:33:28.451Z,2668.00
2018-02-04T13:34:28.392Z,2500.00
2018-02-04T13:35:28.331Z,2344.00
2018-02-04T13:36:28.283Z,2172.00
2018-02-04T13:37:28.212Z,2024.00
2018-02-04T13:38:28.151Z,1872.00
2018-02-04T13:39:28.092Z,1760.00
2018-02-04T13:40:28.032Z,1648.00
2018-02-04T13:41:27.973Z,1548.00
2018-02-04T13:42:27.911Z,1472.00
2018-02-04T13:43:27.851Z,1412.00
2018-02-04T13:44:27.792Z,1364.00
2018-02-04T13:45:27.733Z,1328.00
2018-02-04T13:46:27.672Z,1296.00
2018-02-04T13:47:27.611Z,1264.00
2018-02-04T13:48:27.553Z,1228.00
2018-02-04T13:49:27.491Z,1200.00
2018-02-04T13:50:27.433Z,1172.00
2018-02-04T13:51:27.372Z,1152.00
2018-02-04T13:52:27.357Z,1132.00
2018-02-04T13:53:27.252Z,1112.00
2018-02-04T13:54:27.191Z,1096.00
2018-02-04T13:55:27.131Z,1072.00
2018-02-04T13:56:27.071Z,1052.00
2018-02-04T13:57:27.015Z,1040.00
2018-02-04T13:58:26.952Z,1032.00
2018-02-04T13:59:26.890Z,1032.00
2018-02-04T14:00:26.831Z,1020.00
2018-02-04T14:01:26.773Z,1008.00
2018-02-04T14:02:26.709Z,996.00
2018-02-04T14:03:26.649Z,992.00
2018-02-04T14:04:26.590Z,1008.00
2018-02-04T14:05:26.533Z,1040.00
2018-02-04T14:06:26.470Z,1076.00
2018-02-04T14:07:26.409Z,1136.00
2018-02-04T14:08:26.350Z,1216.00
2018-02-04T14:09:26.289Z,1284.00
2018-02-04T14:10:26.236Z,1304.00
2018-02-04T14:11:26.168Z,1264.00
2018-02-04T14:12:26.108Z,1200.00
2018-02-04T14:13:26.047Z,1120.00
2018-02-04T14:14:25.986Z,1060.00
2018-02-04T14:15:25.926Z,1032.00
2018-02-04T14:16:25.868Z,1020.00
2018-02-04T14:17:25.807Z,1016.00
2018-02-04T14:18:25.744Z,1012.00
2018-02-04T14:19:25.684Z,996.00
2018-02-04T14:20:25.626Z,988.00
2018-02-04T14:21:25.566Z,996.00
2018-02-04T14:22:25.506Z,1044.00
2018-02-04T14:23:25.443Z,1188.00
2018-02-04T14:24:25.383Z,1440.00
2018-02-04T14:25:25.323Z,1528.00
2018-02-04T14:26:25.263Z,1644.00
2018-02-04T14:27:25.202Z,1664.00
2018-02-04T14:28:25.142Z,1548.00
2018-02-04T14:29:25.083Z,1376.00
2018-02-04T14:30:25.023Z,1212.00
2018-02-04T14:31:24.962Z,1084.00
2018-02-04T14:32:24.901Z,992.00
2018-02-04T14:33:24.841Z,948.00
2018-02-04T14:34:24.780Z,956.00
2018-02-04T14:35:24.721Z,996.00
2018-02-04T14:36:24.659Z,1000.00
2018-02-04T14:37:24.599Z,1020.00
2018-02-04T14:38:24.538Z,1112.00
2018-02-04T14:39:24.479Z,1276.00
2018-02-04T14:40:24.417Z,1444.00
2018-02-04T14:41:24.357Z,1560.00
2018-02-04T14:42:24.297Z,1560.00
2018-02-04T14:43:24.236Z,1528.00
2018-02-04T14:44:24.175Z,1528.00
2018-02-04T14:45:24.118Z,1576.00
2018-02-04T14:46:24.055Z,1640.00
2018-02-04T14:47:23.993Z,1716.00
2018-02-04T14:48:23.939Z,1692.00
2018-02-04T14:49:23.873Z,1624.00
2018-02-04T14:50:23.814Z,1552.00
2018-02-04T14:51:23.751Z,1460.00
2018-02-04T14:52:23.695Z,1360.00
2018-02-04T14:53:23.632Z,1288.00
2018-02-04T14:54:23.570Z,1216.00
2018-02-04T14:55:23.510Z,1148.00
2018-02-04T14:56:23.450Z,1096.00
2018-02-04T14:57:23.391Z,1056.00
2018-02-04T14:58:23.329Z,1004.00
2018-02-04T14:59:23.268Z,956.00
2018-02-04T15:00:23.207Z,924.00
2018-02-04T15:01:23.149Z,888.00
2018-02-04T15:02:23.087Z,856.00
2018-02-04T15:03:23.026Z,836.00
2018-02-04T15:04:22.966Z,820.00
2018-02-04T15:05:22.905Z,820.00
2018-02-04T15:06:22.844Z,832.00